Time;durP1;ratioP1;P1;durP2;ratioP2;P2;SDS_P1;SDS_P2;PMS_P1;PMS_P2;Temp;Humidity;BMP_temperature;BMP_pressure;BME280_temperature;BME280_humidity;BME280_pressure;Samples;Min_cycle;Max_cycle;Signal;HPM_P1;HPM_P2
2022/05/01 00:00:32;;;;;;;19.27;14.20;;;;;;;;;;768650;182;916392;-63
2022/05/01 00:02:57;;;;;;;22.43;15.00;;;;;;;;;;766156;182;920641;-63
2022/05/01 00:05:23;;;;;;;23.27;15.43;;;;;;;;;;763400;183;924625;-63
2022/05/01 00:07:49;;;;;;;24.87;16.13;;;;;;;;;;771047;182;924114;-63
2022/05/01 00:10:15;;;;;;;30.00;16.10;;;;;;;;;;767653;182;915215;-63
2022/05/01 00:12:42;;;;;;;25.17;15.20;;;;;;;;;;768436;182;916167;-62
2022/05/01 00:15:07;;;;;;;26.42;17.77;;;;;;;;;;773745;182;916217;-63
2022/05/01 00:17:33;;;;;;;35.57;19.17;;;;;;;;;;768100;182;915886;-63
2022/05/01 00:19:59;;;;;;;31.93;21.10;;;;;;;;;;770348;182;916131;-64
2022/05/01 00:22:25;;;;;;;37.13;23.23;;;;;;;;;;774162;182;916491;-63
2022/05/01 00:24:51;;;;;;;32.35;20.65;;;;;;;;;;768491;182;916420;-63
2022/05/01 00:27:17;;;;;;;31.07;20.27;;;;;;;;;;764498;182;1017662;-62
2022/05/01 00:29:42;;;;;;;32.33;21.97;;;;;;;;;;765616;183;916373;-62
2022/05/01 00:32:08;;;;;;;29.65;21.52;;;;;;;;;;762927;184;916504;-63
2022/05/01 00:37:06;;;;;;;32.47;21.90;;;;;;;;;;758356;185;916450;-63
2022/05/01 00:39:32;;;;;;;33.53;21.60;;;;;;;;;;763652;185;917079;-63
2022/05/01 00:41:58;;;;;;;31.87;20.57;;;;;;;;;;757351;185;916836;-62
2022/05/01 00:44:23;;;;;;;29.30;21.73;;;;;;;;;;764524;182;915984;-63
2022/05/01 00:46:51;;;;;;;32.47;20.75;;;;;;;;;;763368;180;916045;-62
2022/05/01 00:49:16;;;;;;;40.70;22.73;;;;;;;;;;763653;182;915566;-63
2022/05/01 00:51:42;;;;;;;34.97;24.10;;;;;;;;;;756762;185;915630;-63
2022/05/01 00:54:08;;;;;;;35.03;24.13;;;;;;;;;;762489;182;919237;-62
2022/05/01 00:56:34;;;;;;;33.80;24.10;;;;;;;;;;773171;179;918792;-63
2022/05/01 00:59:00;;;;;;;37.77;24.97;;;;;;;;;;768793;178;917095;-63
2022/05/01 01:01:26;;;;;;;38.27;26.47;;;;;;;;;;770662;180;915783;-63
2022/05/01 01:03:53;;;;;;;32.38;21.98;;;;;;;;;;776897;178;916780;-62
2022/05/01 01:06:17;;;;;;;30.17;21.83;;;;;;;;;;772751;180;916042;-62
2022/05/01 01:08:44;;;;;;;32.70;23.23;;;;;;;;;;770825;178;916607;-62
2022/05/01 01:11:09;;;;;;;34.23;23.17;;;;;;;;;;774154;178;916628;-63
2022/05/01 01:13:35;;;;;;;35.20;22.70;;;;;;;;;;770225;178;1007982;-63
2022/05/01 01:16:01;;;;;;;32.58;23.38;;;;;;;;;;768879;178;920297;-62
2022/05/01 01:18:27;;;;;;;33.93;23.07;;;;;;;;;;768797;179;920225;-62
2022/05/01 01:20:52;;;;;;;35.50;23.63;;;;;;;;;;769481;179;915520;-63
2022/05/01 01:23:18;;;;;;;39.77;25.27;;;;;;;;;;768671;178;916170;-63
2022/05/01 01:25:44;;;;;;;37.77;25.20;;;;;;;;;;762578;182;916146;-63
2022/05/01 01:28:10;;;;;;;32.37;23.37;;;;;;;;;;774224;182;916241;-63
2022/05/01 01:33:07;;;;;;;29.33;22.77;;;;;;;;;;769771;182;916096;-63
2022/05/01 01:35:33;;;;;;;34.07;24.53;;;;;;;;;;768290;182;923646;-62
2022/05/01 01:37:59;;;;;;;37.17;23.90;;;;;;;;;;779150;177;916187;-63
2022/05/01 01:40:27;;;;;;;39.93;23.67;;;;;;;;;;771101;177;915364;-64
2022/05/01 01:42:53;;;;;;;34.87;24.30;;;;;;;;;;767817;182;915864;-63
2022/05/01 01:45:18;;;;;;;44.47;27.97;;;;;;;;;;772576;182;915485;-63
2022/05/01 01:47:44;;;;;;;36.77;24.63;;;;;;;;;;769191;182;916416;-64
2022/05/01 01:50:12;;;;;;;36.80;24.87;;;;;;;;;;769276;182;916211;-63
2022/05/01 01:52:39;;;;;;;35.53;24.40;;;;;;;;;;771491;182;917282;-62
2022/05/01 01:55:05;;;;;;;33.93;23.53;;;;;;;;;;772573;180;915137;-62
2022/05/01 01:57:31;;;;;;;36.20;24.20;;;;;;;;;;776154;176;916454;-63
2022/05/01 01:59:57;;;;;;;38.80;24.97;;;;;;;;;;783505;176;915981;-62
2022/05/01 02:02:22;;;;;;;34.97;23.50;;;;;;;;;;784606;179;917147;-63
2022/05/01 02:04:48;;;;;;;35.97;26.03;;;;;;;;;;777189;178;916386;-63
2022/05/01 02:07:14;;;;;;;34.23;24.73;;;;;;;;;;780916;178;920034;-63
2022/05/01 02:09:40;;;;;;;31.93;24.57;;;;;;;;;;775673;182;915523;-62
2022/05/01 02:12:08;;;;;;;40.40;25.83;;;;;;;;;;773507;180;918727;-63
2022/05/01 02:14:34;;;;;;;38.87;26.50;;;;;;;;;;771886;182;918738;-62
2022/05/01 02:16:59;;;;;;;38.15;24.92;;;;;;;;;;787763;176;919337;-62
2022/05/01 02:19:25;;;;;;;43.17;26.30;;;;;;;;;;788427;174;918472;-62
2022/05/01 02:21:51;;;;;;;35.37;24.87;;;;;;;;;;775209;177;918984;-63
2022/05/01 02:24:17;;;;;;;37.25;24.80;;;;;;;;;;784873;176;926540;-63
2022/05/01 02:26:42;;;;;;;43.50;27.37;;;;;;;;;;787361;176;913149;-62
2022/05/01 02:29:11;;;;;;;37.80;25.60;;;;;;;;;;774516;176;916545;-63
2022/05/01 02:31:38;;;;;;;41.05;24.73;;;;;;;;;;769297;183;1016684;-63
2022/05/01 02:34:02;;;;;;;40.10;24.77;;;;;;;;;;774532;182;914594;-63
2022/05/01 02:36:28;;;;;;;39.80;24.60;;;;;;;;;;767953;182;915224;-62
2022/05/01 02:38:54;;;;;;;40.10;23.87;;;;;;;;;;769231;182;928525;-62
2022/05/01 02:41:20;;;;;;;45.47;25.23;;;;;;;;;;768789;182;920236;-62
2022/05/01 02:43:46;;;;;;;34.07;22.93;;;;;;;;;;778181;179;916145;-63
2022/05/01 02:46:12;;;;;;;32.30;22.90;;;;;;;;;;768673;182;915899;-62
2022/05/01 02:48:38;;;;;;;35.30;24.42;;;;;;;;;;766891;182;916192;-63
2022/05/01 02:51:04;;;;;;;36.03;24.37;;;;;;;;;;775612;182;947803;-63
2022/05/01 02:53:30;;;;;;;32.50;23.93;;;;;;;;;;772192;179;916311;-62
2022/05/01 02:55:56;;;;;;;41.50;27.80;;;;;;;;;;766008;182;915938;-62
2022/05/01 02:58:22;;;;;;;37.93;25.37;;;;;;;;;;773038;182;916005;-63
2022/05/01 03:00:48;;;;;;;31.63;22.43;;;;;;;;;;767167;183;915828;-62
2022/05/01 03:03:14;;;;;;;36.53;23.53;;;;;;;;;;766862;182;916973;-62
2022/05/01 03:05:40;;;;;;;34.20;24.10;;;;;;;;;;773105;182;917369;-63
2022/05/01 03:08:06;;;;;;;31.27;22.87;;;;;;;;;;767217;182;927108;-62
2022/05/01 03:10:31;;;;;;;33.97;23.60;;;;;;;;;;764823;183;916415;-62
2022/05/01 03:12:57;;;;;;;30.47;21.77;;;;;;;;;;764788;183;915602;-62
2022/05/01 03:15:24;;;;;;;36.53;24.00;;;;;;;;;;771017;182;915615;-65
2022/05/01 03:22:52;;;;;;;33.63;24.00;;;;;;;;;;777964;174;951246;-62
2022/05/01 03:25:18;;;;;;;30.90;21.90;;;;;;;;;;775008;182;909287;-62
2022/05/01 03:27:44;;;;;;;37.10;23.80;;;;;;;;;;769147;181;929546;-62
2022/05/01 03:30:16;;;;;;;36.00;23.20;;;;;;;;;;770419;178;920037;-62
2022/05/01 03:32:43;;;;;;;33.10;24.03;;;;;;;;;;785253;178;920268;-63
2022/05/01 03:35:08;;;;;;;35.23;24.30;;;;;;;;;;766488;179;1013327;-62
2022/05/01 03:37:33;;;;;;;37.07;23.70;;;;;;;;;;764795;180;914640;-61
2022/05/01 03:39:59;;;;;;;29.20;22.47;;;;;;;;;;767095;182;919287;-62
2022/05/01 03:42:25;;;;;;;37.40;25.20;;;;;;;;;;775357;182;919394;-62
2022/05/01 03:44:51;;;;;;;35.23;24.33;;;;;;;;;;768173;182;932546;-62
2022/05/01 03:47:17;;;;;;;33.90;22.77;;;;;;;;;;772837;179;919577;-62
2022/05/01 03:49:43;;;;;;;31.20;22.83;;;;;;;;;;773349;179;914550;-62
2022/05/01 03:52:09;;;;;;;36.27;25.60;;;;;;;;;;769479;182;919338;-63
2022/05/01 03:54:35;;;;;;;34.55;23.40;;;;;;;;;;767823;182;920570;-62
2022/05/01 03:57:02;;;;;;;38.87;25.47;;;;;;;;;;774640;182;915165;-66
2022/05/01 03:59:26;;;;;;;32.93;26.00;;;;;;;;;;770029;182;919936;-61
2022/05/01 04:01:52;;;;;;;32.57;24.90;;;;;;;;;;770328;182;919376;-62
2022/05/01 04:04:19;;;;;;;33.33;23.57;;;;;;;;;;767417;182;915235;-62
2022/05/01 04:06:44;;;;;;;35.97;23.10;;;;;;;;;;761428;182;919384;-62
2022/05/01 04:09:12;;;;;;;26.93;21.60;;;;;;;;;;748183;185;920035;-62
2022/05/01 04:11:35;;;;;;;38.30;23.73;;;;;;;;;;781589;179;919769;-62
2022/05/01 04:14:02;;;;;;;32.43;22.87;;;;;;;;;;791825;177;913266;-62
2022/05/01 04:16:27;;;;;;;34.23;22.30;;;;;;;;;;783896;177;919246;-62
2022/05/01 04:18:53;;;;;;;40.40;26.37;;;;;;;;;;769712;182;919696;-62
2022/05/01 04:21:19;;;;;;;31.20;21.93;;;;;;;;;;773799;182;919868;-62
2022/05/01 04:23:45;;;;;;;35.70;24.23;;;;;;;;;;770531;182;919111;-61
2022/05/01 04:26:10;;;;;;;35.53;23.97;;;;;;;;;;774443;177;920320;-62
2022/05/01 04:28:37;;;;;;;34.65;23.05;;;;;;;;;;785754;179;919459;-62
2022/05/01 04:31:03;;;;;;;33.17;23.77;;;;;;;;;;779259;180;920307;-64
2022/05/01 04:33:29;;;;;;;36.10;23.97;;;;;;;;;;773692;179;919164;-62
2022/05/01 04:35:55;;;;;;;33.20;22.97;;;;;;;;;;773973;181;918962;-62
2022/05/01 04:38:21;;;;;;;32.87;22.60;;;;;;;;;;776817;182;920178;-62
2022/05/01 04:40:47;;;;;;;33.75;23.38;;;;;;;;;;771895;182;933258;-62
2022/05/01 04:43:14;;;;;;;31.40;21.20;;;;;;;;;;771616;182;919262;-62
2022/05/01 04:45:40;;;;;;;31.85;21.77;;;;;;;;;;777522;182;919337;-63
2022/05/01 04:48:06;;;;;;;32.77;21.10;;;;;;;;;;770755;182;919738;-62
2022/05/01 04:50:32;;;;;;;38.90;21.93;;;;;;;;;;769321;182;920353;-63
2022/05/01 04:53:00;;;;;;;33.05;22.17;;;;;;;;;;769124;182;918933;-62
2022/05/01 04:55:23;;;;;;;29.67;21.40;;;;;;;;;;762277;182;919195;-63
2022/05/01 04:57:49;;;;;;;27.67;20.73;;;;;;;;;;759554;184;919887;-63
2022/05/01 05:00:16;;;;;;;27.03;20.13;;;;;;;;;;764438;182;920013;-63
2022/05/01 05:02:41;;;;;;;29.10;19.83;;;;;;;;;;772468;182;919941;-62
2022/05/01 05:05:08;;;;;;;36.23;21.33;;;;;;;;;;766165;182;919545;-62
2022/05/01 05:07:33;;;;;;;28.23;19.07;;;;;;;;;;768413;180;918325;-62
2022/05/01 05:09:59;;;;;;;34.53;22.70;;;;;;;;;;774251;182;920335;-62
2022/05/01 05:12:25;;;;;;;26.37;19.80;;;;;;;;;;773269;179;939409;-64
2022/05/01 05:14:52;;;;;;;28.05;19.90;;;;;;;;;;771073;179;920600;-63
2022/05/01 05:17:18;;;;;;;31.50;20.00;;;;;;;;;;771392;182;918839;-63
2022/05/01 05:19:43;;;;;;;24.30;18.90;;;;;;;;;;766340;182;919361;-62
2022/05/01 05:22:09;;;;;;;30.62;21.25;;;;;;;;;;768398;182;919482;-63
2022/05/01 05:24:34;;;;;;;32.23;20.73;;;;;;;;;;767373;182;919024;-62
2022/05/01 05:27:00;;;;;;;34.63;19.80;;;;;;;;;;777857;179;920006;-63
2022/05/01 05:29:26;;;;;;;29.55;19.05;;;;;;;;;;782025;178;919498;-64
2022/05/01 05:31:52;;;;;;;26.97;20.00;;;;;;;;;;770631;182;920128;-63
2022/05/01 05:34:18;;;;;;;29.53;20.97;;;;;;;;;;787288;178;919350;-63
2022/05/01 05:36:44;;;;;;;28.90;19.57;;;;;;;;;;775606;178;920166;-63
2022/05/01 05:39:09;;;;;;;26.70;19.73;;;;;;;;;;769191;182;919832;-63
2022/05/01 05:41:35;;;;;;;28.20;19.83;;;;;;;;;;773091;182;919058;-63
2022/05/01 05:44:01;;;;;;;28.53;19.00;;;;;;;;;;764336;182;919659;-63
2022/05/01 05:46:27;;;;;;;30.20;20.47;;;;;;;;;;766990;180;1021929;-64
2022/05/01 05:48:53;;;;;;;31.30;20.30;;;;;;;;;;770016;181;915351;-63
2022/05/01 05:51:19;;;;;;;30.37;20.93;;;;;;;;;;766929;182;919463;-64
2022/05/01 05:53:45;;;;;;;35.30;20.80;;;;;;;;;;767681;181;919362;-63
2022/05/01 05:56:10;;;;;;;32.10;19.60;;;;;;;;;;768725;182;919472;-64
2022/05/01 05:58:36;;;;;;;32.30;21.17;;;;;;;;;;783757;177;919212;-64
2022/05/01 06:01:02;;;;;;;34.10;22.47;;;;;;;;;;772462;177;948039;-64
2022/05/01 06:03:28;;;;;;;34.73;21.03;;;;;;;;;;768517;179;943847;-64
2022/05/01 06:05:54;;;;;;;28.20;21.48;;;;;;;;;;775093;179;919352;-64
2022/05/01 06:08:20;;;;;;;29.60;21.50;;;;;;;;;;768886;182;920727;-63
2022/05/01 06:10:45;;;;;;;30.30;21.43;;;;;;;;;;768133;182;920825;-64
2022/05/01 06:13:12;;;;;;;31.58;20.37;;;;;;;;;;769671;182;914547;-64
2022/05/01 06:15:38;;;;;;;33.37;21.93;;;;;;;;;;776262;179;917631;-63
2022/05/01 06:18:03;;;;;;;36.30;21.60;;;;;;;;;;774374;179;919904;-64
2022/05/01 06:20:29;;;;;;;35.50;25.23;;;;;;;;;;768687;182;917063;-64
2022/05/01 06:22:56;;;;;;;33.90;23.30;;;;;;;;;;754716;185;923488;-64
2022/05/01 06:25:21;;;;;;;31.80;21.83;;;;;;;;;;777838;178;919816;-64
2022/05/01 06:27:47;;;;;;;42.47;24.07;;;;;;;;;;771377;182;815844;-64
2022/05/01 06:30:13;;;;;;;41.40;26.03;;;;;;;;;;772967;182;919680;-63
2022/05/01 06:32:39;;;;;;;31.93;23.37;;;;;;;;;;767430;182;919670;-64
2022/05/01 06:35:05;;;;;;;44.17;25.13;;;;;;;;;;768596;182;918652;-64
2022/05/01 06:37:31;;;;;;;31.95;22.37;;;;;;;;;;772221;182;919243;-65
2022/05/01 06:39:57;;;;;;;34.73;23.63;;;;;;;;;;766980;182;919379;-63
2022/05/01 06:42:22;;;;;;;34.70;22.33;;;;;;;;;;765674;180;921881;-64
2022/05/01 06:44:48;;;;;;;38.93;28.70;;;;;;;;;;767844;182;919408;-63
2022/05/01 06:47:14;;;;;;;39.07;26.53;;;;;;;;;;772196;182;918972;-63
2022/05/01 06:49:40;;;;;;;48.27;31.70;;;;;;;;;;769356;182;917648;-64
2022/05/01 06:52:06;;;;;;;36.40;25.77;;;;;;;;;;767652;182;920436;-64
2022/05/01 06:54:32;;;;;;;35.37;24.30;;;;;;;;;;771882;182;918785;-64
2022/05/01 06:56:58;;;;;;;38.27;24.50;;;;;;;;;;769514;180;920198;-63
2022/05/01 06:59:24;;;;;;;32.90;22.10;;;;;;;;;;768965;181;916928;-63
2022/05/01 07:01:50;;;;;;;38.03;23.87;;;;;;;;;;778904;178;915755;-64
2022/05/01 07:04:16;;;;;;;37.13;25.63;;;;;;;;;;768116;181;919041;-65
2022/05/01 07:06:42;;;;;;;33.40;22.10;;;;;;;;;;767250;181;919152;-64
2022/05/01 07:09:07;;;;;;;28.63;20.90;;;;;;;;;;767463;182;919379;-64
2022/05/01 07:11:33;;;;;;;35.17;23.30;;;;;;;;;;772445;182;919788;-62
2022/05/01 07:13:59;;;;;;;30.67;19.17;;;;;;;;;;767544;182;919547;-65
2022/05/01 07:16:25;;;;;;;34.47;21.13;;;;;;;;;;766838;182;920256;-66
2022/05/01 07:18:51;;;;;;;33.40;21.90;;;;;;;;;;773835;182;909125;-65
2022/05/01 07:21:17;;;;;;;34.20;22.93;;;;;;;;;;769880;182;919075;-65
2022/05/01 07:23:42;;;;;;;33.07;20.20;;;;;;;;;;767902;182;929939;-65
2022/05/01 07:26:08;;;;;;;29.13;18.37;;;;;;;;;;773050;182;916523;-64
2022/05/01 07:28:34;;;;;;;27.83;19.10;;;;;;;;;;768141;182;919098;-65
2022/05/01 07:31:02;;;;;;;35.27;19.73;;;;;;;;;;768687;179;919164;-65
2022/05/01 07:33:26;;;;;;;29.50;19.27;;;;;;;;;;773190;177;917486;-65
2022/05/01 07:35:52;;;;;;;30.40;19.53;;;;;;;;;;760398;184;922318;-67
2022/05/01 07:38:17;;;;;;;23.90;19.40;;;;;;;;;;756420;185;920723;-67
2022/05/01 07:40:43;;;;;;;24.77;17.80;;;;;;;;;;756563;185;918941;-66
2022/05/01 07:43:10;;;;;;;25.70;20.40;;;;;;;;;;762148;185;919029;-67
2022/05/01 07:45:36;;;;;;;32.33;20.00;;;;;;;;;;777359;175;918625;-66
2022/05/01 07:48:02;;;;;;;28.87;19.80;;;;;;;;;;784676;178;918538;-67
2022/05/01 07:50:28;;;;;;;27.20;18.50;;;;;;;;;;757273;184;930808;-66
2022/05/01 07:52:53;;;;;;;26.00;19.30;;;;;;;;;;775553;178;919643;-66
2022/05/01 07:55:19;;;;;;;26.93;20.30;;;;;;;;;;768730;182;919472;-67
2022/05/01 07:57:46;;;;;;;27.15;18.52;;;;;;;;;;787170;176;918776;-66
2022/05/01 08:00:13;;;;;;;22.67;16.77;;;;;;;;;;775390;179;656180;-68
2022/05/01 08:04:27;;;;;;;28.13;19.07;;;;;;;;;;785104;175;920167;-65
2022/05/01 08:05:04;;;;;;;23.77;17.53;;;;;;;;;;782837;178;921000;-67
2022/05/01 08:07:30;;;;;;;27.53;18.50;;;;;;;;;;778914;178;863054;-67
2022/05/01 08:09:56;;;;;;;23.10;17.27;;;;;;;;;;761131;182;992778;-67
2022/05/01 08:12:21;;;;;;;22.93;17.80;;;;;;;;;;772333;181;920905;-67
2022/05/01 08:14:47;;;;;;;29.03;20.07;;;;;;;;;;778075;181;623691;-67
2022/05/01 08:17:13;;;;;;;25.43;17.20;;;;;;;;;;771520;181;626109;-67
2022/05/01 08:22:10;;;;;;;21.50;16.00;;;;;;;;;;779199;175;641750;-66
2022/05/01 08:24:36;;;;;;;25.77;15.37;;;;;;;;;;789820;177;633021;-64
2022/05/01 08:27:05;;;;;;;24.27;17.10;;;;;;;;;;773603;179;632233;-66
2022/05/01 08:29:29;;;;;;;20.30;15.07;;;;;;;;;;777716;177;652254;-66
2022/05/01 08:31:54;;;;;;;24.90;17.90;;;;;;;;;;786734;175;628847;-69
2022/05/01 08:34:20;;;;;;;20.40;15.93;;;;;;;;;;770852;182;627662;-65
2022/05/01 08:36:46;;;;;;;19.63;13.50;;;;;;;;;;773052;182;629953;-67
2022/05/01 08:39:12;;;;;;;19.33;13.00;;;;;;;;;;774062;182;740094;-68
2022/05/01 08:41:38;;;;;;;18.97;13.13;;;;;;;;;;772376;182;669712;-67
2022/05/01 08:44:05;;;;;;;19.83;12.97;;;;;;;;;;769713;182;655492;-67
2022/05/01 08:46:46;;;;;;;21.63;12.60;;;;;;;;;;769958;182;653187;-67
2022/05/01 08:49:12;;;;;;;37.07;21.37;;;;;;;;;;776253;177;639145;-68
2022/05/01 08:51:39;;;;;;;15.47;12.47;;;;;;;;;;778563;177;621834;-68
2022/05/01 08:54:05;;;;;;;12.87;9.73;;;;;;;;;;774391;177;650565;-68
2022/05/01 08:56:32;;;;;;;26.00;12.57;;;;;;;;;;770586;182;669156;-68
2022/05/01 08:58:57;;;;;;;14.07;10.63;;;;;;;;;;786046;177;679110;-68
2022/05/01 09:01:23;;;;;;;17.00;10.50;;;;;;;;;;774422;177;622112;-68
2022/05/01 09:03:49;;;;;;;15.37;10.50;;;;;;;;;;773549;177;651931;-68
2022/05/01 09:06:16;;;;;;;17.65;13.38;;;;;;;;;;774998;180;625819;-68
2022/05/01 09:08:41;;;;;;;17.80;9.73;;;;;;;;;;775110;178;627091;-68
2022/05/01 09:13:39;;;;;;;53.20;21.60;;;;;;;;;;776228;179;639572;-69
2022/05/01 09:16:09;;;;;;;14.40;10.30;;;;;;;;;;775054;182;645816;-68
2022/05/01 09:18:36;;;;;;;14.70;8.70;;;;;;;;;;767820;182;919926;-68
2022/05/01 09:21:02;;;;;;;14.57;9.53;;;;;;;;;;772578;181;634534;-68
2022/05/01 09:23:34;;;;;;;9.80;8.67;;;;;;;;;;772592;180;784522;-69
2022/05/01 09:26:00;;;;;;;13.47;9.40;;;;;;;;;;783105;177;628459;-68
2022/05/01 09:28:26;;;;;;;15.20;10.13;;;;;;;;;;772661;181;627088;-67
2022/05/01 09:30:51;;;;;;;16.10;10.77;;;;;;;;;;771392;182;684331;-68
2022/05/01 09:33:20;;;;;;;13.43;9.93;;;;;;;;;;773127;182;622682;-67
2022/05/01 09:35:46;;;;;;;18.60;11.43;;;;;;;;;;780186;177;652551;-68
2022/05/01 09:38:19;;;;;;;12.93;9.63;;;;;;;;;;776015;177;627569;-69
2022/05/01 09:40:45;;;;;;;13.57;10.63;;;;;;;;;;771980;182;668296;-69
2022/05/01 09:43:26;;;;;;;12.63;9.77;;;;;;;;;;786925;177;674846;-69
2022/05/01 09:45:52;;;;;;;16.33;11.80;;;;;;;;;;767638;182;631052;-69
2022/05/01 09:48:19;;;;;;;13.23;11.47;;;;;;;;;;773605;179;633535;-69
2022/05/01 09:50:45;;;;;;;13.50;10.60;;;;;;;;;;774738;182;641894;-69
2022/05/01 09:53:11;;;;;;;14.03;10.40;;;;;;;;;;771502;182;660387;-69
2022/05/01 09:55:36;;;;;;;16.10;9.27;;;;;;;;;;774826;182;713029;-67
2022/05/01 09:58:10;;;;;;;11.67;8.57;;;;;;;;;;771810;182;629827;-68
2022/05/01 10:00:36;;;;;;;10.03;8.97;;;;;;;;;;776473;179;639447;-69
2022/05/01 10:03:07;;;;;;;12.37;8.87;;;;;;;;;;770887;181;644782;-69
2022/05/01 10:05:33;;;;;;;11.77;7.13;;;;;;;;;;777067;177;627663;-68
2022/05/01 10:07:59;;;;;;;18.13;9.40;;;;;;;;;;773251;175;631082;-69
2022/05/01 10:10:25;;;;;;;10.30;7.50;;;;;;;;;;772047;182;627772;-69
2022/05/01 10:12:51;;;;;;;9.17;6.13;;;;;;;;;;778303;176;650013;-69
2022/05/01 10:15:20;;;;;;;9.83;5.63;;;;;;;;;;776428;179;625618;-69
2022/05/01 10:17:43;;;;;;;20.70;7.40;;;;;;;;;;784374;176;719137;-69
2022/05/01 10:20:09;;;;;;;8.03;5.90;;;;;;;;;;781821;176;638065;-68
2022/05/01 10:22:35;;;;;;;12.40;6.17;;;;;;;;;;775397;182;629725;-69
2022/05/01 10:25:01;;;;;;;8.20;5.97;;;;;;;;;;771635;182;614959;-69
2022/05/01 10:27:29;;;;;;;6.37;5.33;;;;;;;;;;769433;175;619044;-68
2022/05/01 10:32:48;;;;;;;7.00;5.83;;;;;;;;;;775331;180;632896;-68
2022/05/01 10:35:29;;;;;;;6.23;4.63;;;;;;;;;;783530;177;621493;-68
2022/05/01 10:38:02;;;;;;;8.07;5.33;;;;;;;;;;774451;181;638001;-68
2022/05/01 10:40:26;;;;;;;6.10;4.93;;;;;;;;;;773552;181;627082;-65
2022/05/01 10:42:53;;;;;;;6.60;5.50;;;;;;;;;;773010;175;643824;-65
2022/05/01 10:45:36;;;;;;;12.07;5.07;;;;;;;;;;784558;177;672471;-67
2022/05/01 10:48:02;;;;;;;9.00;5.37;;;;;;;;;;772781;182;647125;-66
2022/05/01 10:50:27;;;;;;;8.83;5.60;;;;;;;;;;760992;179;671930;-68
2022/05/01 10:52:59;;;;;;;6.43;4.90;;;;;;;;;;772402;182;626697;-68
2022/05/01 10:55:25;;;;;;;9.60;4.70;;;;;;;;;;772445;182;627413;-70
2022/05/01 10:58:08;;;;;;;7.17;4.90;;;;;;;;;;776088;182;619435;-68
2022/05/01 11:00:34;;;;;;;6.60;5.23;;;;;;;;;;773156;182;650563;-70
2022/05/01 11:03:00;;;;;;;11.57;6.63;;;;;;;;;;766645;179;617395;-70
2022/05/01 11:05:30;;;;;;;9.07;5.73;;;;;;;;;;769189;182;699212;-71
2022/05/01 11:07:57;;;;;;;9.73;6.60;;;;;;;;;;769725;182;689677;-69
2022/05/01 11:10:21;;;;;;;24.27;11.40;;;;;;;;;;762374;184;636082;-71
2022/05/01 11:12:47;;;;;;;66.03;17.40;;;;;;;;;;768456;179;625107;-72
2022/05/01 11:15:13;;;;;;;21.60;9.70;;;;;;;;;;777612;177;640513;-72
2022/05/01 11:17:54;;;;;;;17.00;6.93;;;;;;;;;;773752;182;641969;-72
2022/05/01 11:20:29;;;;;;;10.80;6.50;;;;;;;;;;778673;182;637559;-72
2022/05/01 11:22:53;;;;;;;10.93;8.33;;;;;;;;;;787312;178;642204;-71
2022/05/01 11:25:19;;;;;;;9.73;7.40;;;;;;;;;;770737;182;633682;-73
2022/05/01 11:27:47;;;;;;;10.75;8.50;;;;;;;;;;772565;182;645631;-71
2022/05/01 11:30:20;;;;;;;14.03;9.23;;;;;;;;;;769669;182;621864;-73
2022/05/01 11:32:42;;;;;;;10.10;8.23;;;;;;;;;;769831;182;629798;-72
2022/05/01 11:35:08;;;;;;;9.53;8.37;;;;;;;;;;752072;185;657279;-71
2022/05/01 11:37:35;;;;;;;10.27;8.50;;;;;;;;;;779458;179;619175;-70
2022/05/01 11:40:03;;;;;;;9.70;7.13;;;;;;;;;;769259;182;619003;-71
2022/05/01 11:42:29;;;;;;;11.93;8.30;;;;;;;;;;771372;182;631155;-71
2022/05/01 11:44:57;;;;;;;11.20;7.23;;;;;;;;;;773392;181;641774;-71
2022/05/01 11:47:23;;;;;;;12.20;6.30;;;;;;;;;;787968;178;620851;-71
2022/05/01 11:49:50;;;;;;;10.00;5.23;;;;;;;;;;776350;181;634075;-71
2022/05/01 11:52:16;;;;;;;9.73;6.37;;;;;;;;;;776234;182;621843;-71
2022/05/01 11:54:40;;;;;;;7.73;4.93;;;;;;;;;;778338;182;630124;-71
2022/05/01 12:02:31;;;;;;;4.87;4.23;;;;;;;;;;773315;182;627875;-70
2022/05/01 12:04:58;;;;;;;7.00;6.10;;;;;;;;;;777373;178;627618;-69
2022/05/01 12:07:25;;;;;;;7.43;6.20;;;;;;;;;;789117;175;626447;-69
2022/05/01 12:09:51;;;;;;;9.90;5.30;;;;;;;;;;781856;180;614779;-70
2022/05/01 12:12:19;;;;;;;8.40;4.80;;;;;;;;;;775986;182;628266;-69
2022/05/01 12:14:43;;;;;;;7.53;4.83;;;;;;;;;;782500;176;693284;-69
2022/05/01 12:17:13;;;;;;;10.63;5.73;;;;;;;;;;755328;185;627057;-71
2022/05/01 12:19:37;;;;;;;7.27;5.57;;;;;;;;;;769978;182;641182;-71
2022/05/01 12:22:04;;;;;;;7.53;5.53;;;;;;;;;;769754;182;689354;-70
2022/05/01 12:24:30;;;;;;;5.53;4.63;;;;;;;;;;791895;177;627513;-70
2022/05/01 12:26:56;;;;;;;7.30;4.50;;;;;;;;;;775166;182;623342;-70
2022/05/01 12:29:21;;;;;;;7.77;4.97;;;;;;;;;;774791;182;630517;-70
2022/05/01 12:31:53;;;;;;;5.33;4.30;;;;;;;;;;771717;180;624998;-71
2022/05/01 12:34:23;;;;;;;4.53;4.10;;;;;;;;;;787860;175;642787;-71
2022/05/01 12:36:54;;;;;;;5.97;4.33;;;;;;;;;;777649;177;633960;-70
2022/05/01 12:39:21;;;;;;;6.80;4.53;;;;;;;;;;776016;177;618590;-67
2022/05/01 12:44:24;;;;;;;6.13;3.40;;;;;;;;;;785809;178;621704;-68
2022/05/01 12:46:51;;;;;;;5.50;3.87;;;;;;;;;;759903;185;625579;-70
2022/05/01 12:49:22;;;;;;;4.10;3.13;;;;;;;;;;775248;182;682588;-71
2022/05/01 12:51:48;;;;;;;5.57;3.73;;;;;;;;;;779862;177;726125;-68
2022/05/01 12:54:18;;;;;;;6.93;3.90;;;;;;;;;;776512;177;619036;-71
2022/05/01 12:56:45;;;;;;;5.47;3.87;;;;;;;;;;778167;181;617784;-71
2022/05/01 12:59:15;;;;;;;6.90;3.73;;;;;;;;;;778323;176;628394;-71
2022/05/01 13:01:41;;;;;;;9.90;4.40;;;;;;;;;;772835;181;637340;-71
2022/05/01 13:04:07;;;;;;;6.40;4.13;;;;;;;;;;776641;182;621389;-71
2022/05/01 13:06:33;;;;;;;5.37;3.80;;;;;;;;;;771798;182;648168;-72
2022/05/01 13:09:05;;;;;;;5.63;3.90;;;;;;;;;;771721;180;621354;-72
2022/05/01 13:11:33;;;;;;;9.53;5.70;;;;;;;;;;772191;182;627435;-71
2022/05/01 13:13:59;;;;;;;8.37;5.40;;;;;;;;;;775970;182;628540;-71
2022/05/01 13:16:26;;;;;;;6.73;3.77;;;;;;;;;;773835;182;624519;-71
2022/05/01 13:18:52;;;;;;;5.13;3.60;;;;;;;;;;771717;182;630477;-71
2022/05/01 13:21:17;;;;;;;5.00;4.20;;;;;;;;;;775359;182;628934;-71
2022/05/01 13:23:43;;;;;;;5.20;3.10;;;;;;;;;;774660;179;632806;-72
2022/05/01 13:26:09;;;;;;;5.40;3.70;;;;;;;;;;772991;182;633095;-72
2022/05/01 13:28:35;;;;;;;6.67;3.93;;;;;;;;;;770707;182;936290;-71
2022/05/01 13:31:01;;;;;;;5.40;4.10;;;;;;;;;;773462;182;916478;-73
2022/05/01 13:33:27;;;;;;;4.93;3.70;;;;;;;;;;770566;180;810959;-71
2022/05/01 13:35:52;;;;;;;5.50;3.90;;;;;;;;;;771352;182;614592;-72
2022/05/01 13:38:18;;;;;;;5.87;3.90;;;;;;;;;;775786;182;614558;-72
2022/05/01 13:45:47;;;;;;;9.47;6.73;;;;;;;;;;772005;176;621024;-72
2022/05/01 13:48:13;;;;;;;16.33;8.77;;;;;;;;;;781718;179;626142;-71
2022/05/01 13:50:39;;;;;;;11.07;7.63;;;;;;;;;;773969;182;628600;-71
2022/05/01 13:53:09;;;;;;;16.63;10.17;;;;;;;;;;770940;182;630771;-69
2022/05/01 13:55:31;;;;;;;9.00;7.47;;;;;;;;;;773234;182;624836;-70
2022/05/01 13:57:57;;;;;;;10.10;8.03;;;;;;;;;;767892;182;717412;-67
2022/05/01 14:00:23;;;;;;;16.93;9.93;;;;;;;;;;771104;179;623372;-70
2022/05/01 14:02:49;;;;;;;12.13;10.30;;;;;;;;;;774418;179;618892;-66
2022/05/01 14:05:14;;;;;;;15.03;10.03;;;;;;;;;;775260;182;625154;-67
2022/05/01 14:07:40;;;;;;;12.23;9.50;;;;;;;;;;775940;180;628769;-68
2022/05/01 14:10:06;;;;;;;12.77;9.57;;;;;;;;;;775301;181;628610;-67
2022/05/01 14:12:32;;;;;;;13.10;8.47;;;;;;;;;;781266;177;630066;-69
2022/05/01 14:14:58;;;;;;;15.60;9.30;;;;;;;;;;775269;177;624054;-69
2022/05/01 14:17:24;;;;;;;14.40;8.07;;;;;;;;;;780058;177;632202;-70
2022/05/01 14:19:50;;;;;;;9.23;7.90;;;;;;;;;;782944;177;635464;-69
2022/05/01 14:22:15;;;;;;;12.73;9.43;;;;;;;;;;775677;182;629613;-71
2022/05/01 14:24:41;;;;;;;11.83;7.73;;;;;;;;;;776949;176;633385;-70
2022/05/01 14:27:07;;;;;;;13.30;8.67;;;;;;;;;;782623;177;627759;-69
2022/05/01 14:29:33;;;;;;;9.60;8.60;;;;;;;;;;760466;184;620858;-70
2022/05/01 14:32:00;;;;;;;11.97;8.70;;;;;;;;;;760123;185;619928;-70
2022/05/01 14:34:26;;;;;;;15.13;7.60;;;;;;;;;;771547;182;634541;-67
2022/05/01 14:36:53;;;;;;;10.30;7.50;;;;;;;;;;775594;182;631097;-69